createdAt,value
2023-01-07T00:00:08.365Z,99.99
2023-01-07T00:01:08.355Z,99.99
2023-01-07T00:02:08.382Z,99.99
2023-01-07T00:03:08.327Z,99.99
2023-01-07T00:04:08.408Z,99.99
2023-01-07T00:05:08.275Z,99.99
2023-01-07T00:06:08.275Z,99.99
2023-01-07T00:07:09.915Z,99.99
2023-01-07T00:08:08.276Z,99.99
2023-01-07T00:09:08.244Z,99.99
2023-01-07T00:10:08.248Z,99.99
2023-01-07T00:11:08.241Z,99.99
2023-01-07T00:12:08.253Z,99.99
2023-01-07T00:13:08.215Z,99.99
2023-01-07T00:14:08.199Z,99.99
2023-01-07T00:15:08.177Z,99.99
2023-01-07T00:16:08.264Z,99.99
2023-01-07T00:17:08.199Z,99.99
2023-01-07T00:18:08.173Z,99.99
2023-01-07T00:19:08.155Z,99.99
2023-01-07T00:20:08.137Z,99.99
2023-01-07T00:21:08.107Z,99.99
2023-01-07T00:22:08.130Z,99.99
2023-01-07T00:23:08.089Z,99.99
2023-01-07T00:24:08.111Z,99.99
2023-01-07T00:25:08.064Z,99.99
2023-01-07T00:26:08.072Z,99.99
2023-01-07T00:27:08.091Z,99.99
2023-01-07T00:28:08.051Z,99.99
2023-01-07T00:29:08.036Z,99.99
2023-01-07T00:30:08.005Z,99.99
2023-01-07T00:31:08.046Z,99.99
2023-01-07T00:32:08.048Z,99.99
2023-01-07T00:33:07.982Z,99.99
2023-01-07T00:34:07.974Z,99.99
2023-01-07T00:35:07.947Z,99.99
2023-01-07T00:36:07.938Z,99.99
2023-01-07T00:37:07.968Z,99.99
2023-01-07T00:38:07.935Z,99.99
2023-01-07T00:39:07.892Z,99.99
2023-01-07T00:40:07.933Z,99.99
2023-01-07T00:41:07.887Z,99.99
2023-01-07T00:42:07.923Z,99.99
2023-01-07T00:43:07.910Z,99.99
2023-01-07T00:44:07.881Z,99.99
2023-01-07T00:45:07.851Z,99.99
2023-01-07T00:46:07.835Z,99.99
2023-01-07T00:47:07.858Z,99.99
2023-01-07T00:48:07.841Z,99.99
2023-01-07T00:49:07.815Z,99.99
2023-01-07T00:50:07.899Z,99.99
2023-01-07T00:51:07.789Z,99.99
2023-01-07T00:52:07.765Z,99.99
2023-01-07T00:53:07.789Z,99.99
2023-01-07T00:54:07.763Z,99.99
2023-01-07T00:55:07.744Z,99.99
2023-01-07T00:56:07.719Z,99.99
2023-01-07T00:57:07.706Z,99.99
2023-01-07T00:58:07.825Z,99.99
2023-01-07T00:59:07.701Z,99.99
2023-01-07T01:00:07.684Z,99.99
2023-01-07T01:01:07.745Z,99.99
2023-01-07T01:02:07.829Z,99.99
2023-01-07T01:03:07.696Z,99.99
2023-01-07T01:04:07.655Z,99.99
2023-01-07T01:05:07.644Z,99.99
2023-01-07T01:06:07.600Z,99.99
2023-01-07T01:07:07.590Z,99.99
2023-01-07T01:08:07.616Z,99.99
2023-01-07T01:09:07.592Z,99.99
2023-01-07T01:10:07.576Z,99.99
2023-01-07T01:11:07.547Z,99.99
2023-01-07T01:12:07.550Z,99.99
2023-01-07T01:13:07.576Z,99.99
2023-01-07T01:14:07.544Z,99.99
2023-01-07T01:15:07.502Z,99.99
2023-01-07T01:16:07.527Z,99.99
2023-01-07T01:17:07.474Z,99.99
2023-01-07T01:18:07.517Z,99.99
2023-01-07T01:19:07.479Z,99.99
2023-01-07T01:20:07.442Z,99.99
2023-01-07T01:21:07.450Z,99.99
2023-01-07T01:22:07.438Z,99.99
2023-01-07T01:23:07.479Z,99.99
2023-01-07T01:24:07.418Z,99.99
2023-01-07T01:25:07.451Z,99.99
2023-01-07T01:26:07.393Z,99.99
2023-01-07T01:27:07.374Z,99.99
2023-01-07T01:28:07.381Z,99.99
2023-01-07T01:29:07.396Z,99.99
2023-01-07T01:30:07.360Z,99.99
2023-01-07T01:31:07.356Z,99.99
2023-01-07T01:32:07.326Z,99.99
2023-01-07T01:33:07.313Z,99.99
2023-01-07T01:34:07.334Z,99.99
2023-01-07T01:35:07.298Z,99.99
2023-01-07T01:36:07.265Z,99.99
2023-01-07T01:37:07.258Z,99.99
2023-01-07T01:38:07.238Z,99.99
2023-01-07T01:39:07.253Z,99.99
2023-01-07T01:40:07.236Z,99.99
2023-01-07T01:41:07.239Z,99.99
2023-01-07T01:42:07.223Z,99.99
2023-01-07T01:43:07.200Z,99.99
2023-01-07T01:44:07.212Z,99.99
2023-01-07T01:45:07.175Z,99.99
2023-01-07T01:46:07.159Z,99.99
2023-01-07T01:47:07.152Z,99.99
2023-01-07T01:48:07.137Z,99.99
2023-01-07T01:49:07.141Z,99.99
2023-01-07T01:50:07.110Z,99.99
2023-01-07T01:51:07.107Z,99.99
2023-01-07T01:52:07.112Z,99.99
2023-01-07T01:53:07.087Z,99.99
2023-01-07T01:54:07.103Z,99.99
2023-01-07T01:55:07.063Z,99.99
2023-01-07T01:56:07.070Z,99.99
2023-01-07T01:57:07.027Z,99.99
2023-01-07T01:58:07.030Z,99.99
2023-01-07T01:59:07.047Z,99.99
2023-01-07T02:00:07.015Z,99.99
2023-01-07T02:01:07.086Z,99.99
2023-01-07T02:02:07.067Z,99.99
2023-01-07T02:03:06.962Z,99.99
2023-01-07T02:04:07.014Z,99.99
2023-01-07T02:05:06.954Z,99.99
2023-01-07T02:06:06.937Z,99.99
2023-01-07T02:07:06.911Z,99.99
2023-01-07T02:08:06.891Z,99.99
2023-01-07T02:09:06.930Z,99.99
2023-01-07T02:10:06.925Z,99.99
2023-01-07T02:11:06.870Z,99.99
2023-01-07T02:12:06.861Z,99.99
2023-01-07T02:13:06.846Z,99.99
2023-01-07T02:14:06.893Z,99.99
2023-01-07T02:15:06.845Z,99.99
2023-01-07T02:16:06.869Z,99.99
2023-01-07T02:17:06.815Z,99.99
2023-01-07T02:18:06.808Z,99.99
2023-01-07T02:19:06.818Z,99.99
2023-01-07T02:20:06.789Z,99.99
2023-01-07T02:21:06.775Z,99.99
2023-01-07T02:22:06.757Z,99.99
2023-01-07T02:23:06.766Z,99.99
2023-01-07T02:24:06.768Z,99.99
2023-01-07T02:25:06.720Z,99.99
2023-01-07T02:26:06.725Z,99.99
2023-01-07T02:27:06.689Z,99.99
2023-01-07T02:28:06.696Z,99.99
2023-01-07T02:29:06.665Z,99.99
2023-01-07T02:30:06.710Z,99.99
2023-01-07T02:31:06.650Z,99.99
2023-01-07T02:32:06.647Z,99.99
2023-01-07T02:33:06.655Z,99.99
2023-01-07T02:34:06.615Z,99.99
2023-01-07T02:35:06.641Z,99.99
2023-01-07T02:36:06.582Z,99.99
2023-01-07T02:37:06.574Z,99.99
2023-01-07T02:38:06.567Z,99.99
2023-01-07T02:39:06.549Z,99.99
2023-01-07T02:40:06.601Z,99.99
2023-01-07T02:41:06.523Z,99.99
2023-01-07T02:42:06.539Z,99.99
2023-01-07T02:43:06.513Z,99.99
2023-01-07T02:44:06.523Z,99.99
2023-01-07T02:45:06.549Z,99.99
2023-01-07T02:46:06.539Z,99.99
2023-01-07T02:47:06.470Z,99.99
2023-01-07T02:48:06.464Z,99.99
2023-01-07T02:49:06.466Z,99.99
2023-01-07T02:50:06.487Z,99.99
2023-01-07T02:51:06.429Z,99.99
2023-01-07T02:52:06.443Z,99.99
2023-01-07T02:53:06.414Z,99.99
2023-01-07T02:54:06.396Z,99.99
2023-01-07T02:55:06.412Z,99.99
2023-01-07T02:56:06.380Z,99.99
2023-01-07T02:57:06.347Z,99.99
2023-01-07T02:58:06.364Z,99.99
2023-01-07T02:59:06.333Z,99.99
2023-01-07T03:00:06.361Z,99.99
2023-01-07T03:01:06.436Z,99.99
2023-01-07T03:02:06.353Z,99.99
2023-01-07T03:03:06.310Z,99.99
2023-01-07T03:04:06.292Z,99.99
2023-01-07T03:05:06.307Z,99.99
2023-01-07T03:06:06.260Z,99.99
2023-01-07T03:07:06.247Z,99.99
2023-01-07T03:08:06.212Z,99.99
2023-01-07T03:09:06.206Z,99.99
2023-01-07T03:10:06.276Z,99.99
2023-01-07T03:11:06.202Z,99.99
2023-01-07T03:12:06.200Z,99.99
2023-01-07T03:13:06.176Z,99.99
2023-01-07T03:14:06.180Z,99.99
2023-01-07T03:15:06.196Z,99.99
2023-01-07T03:16:06.208Z,99.99
2023-01-07T03:17:06.141Z,99.99
2023-01-07T03:18:06.143Z,99.99
2023-01-07T03:19:06.127Z,99.99
2023-01-07T03:20:06.154Z,99.99
2023-01-07T03:21:06.122Z,99.99
2023-01-07T03:22:06.066Z,99.99
2023-01-07T03:23:06.085Z,99.99
2023-01-07T03:24:06.060Z,99.99
2023-01-07T03:25:06.072Z,99.99
2023-01-07T03:26:06.061Z,99.99
2023-01-07T03:27:06.039Z,99.99
2023-01-07T03:28:06.042Z,99.99
2023-01-07T03:29:05.989Z,99.99
2023-01-07T03:30:06.025Z,99.99
2023-01-07T03:31:05.978Z,99.99
2023-01-07T03:32:06.068Z,99.99
2023-01-07T03:33:05.956Z,99.99
2023-01-07T03:34:05.963Z,99.99
2023-01-07T03:35:05.965Z,99.99
2023-01-07T03:36:05.950Z,99.99
2023-01-07T03:37:05.910Z,99.99
2023-01-07T03:38:05.892Z,99.99
2023-01-07T03:39:05.877Z,99.99
2023-01-07T03:40:05.914Z,99.99
2023-01-07T03:41:05.889Z,99.99
2023-01-07T03:42:05.891Z,99.99
2023-01-07T03:43:05.872Z,99.99
2023-01-07T03:44:05.841Z,99.99
2023-01-07T03:45:05.871Z,99.99
2023-01-07T03:46:05.903Z,99.99
2023-01-07T03:47:05.805Z,99.99
2023-01-07T03:48:05.798Z,99.99
2023-01-07T03:49:05.776Z,99.99
2023-01-07T03:50:05.800Z,99.99
2023-01-07T03:51:05.761Z,99.99
2023-01-07T03:52:05.733Z,99.99
2023-01-07T03:53:05.728Z,99.99
2023-01-07T03:54:05.723Z,99.99
2023-01-07T03:55:05.744Z,99.99
2023-01-07T03:56:05.685Z,99.99
2023-01-07T03:57:05.712Z,99.99
2023-01-07T03:58:05.685Z,99.99
2023-01-07T03:59:05.663Z,99.99
2023-01-07T04:00:05.691Z,99.99
2023-01-07T04:01:05.740Z,99.99
2023-01-07T04:02:05.936Z,99.99
2023-01-07T04:03:05.631Z,99.99
2023-01-07T04:04:05.700Z,99.99
2023-01-07T04:05:05.631Z,99.99
2023-01-07T04:06:05.579Z,99.99
2023-01-07T04:07:05.570Z,99.99
2023-01-07T04:08:05.546Z,99.99
2023-01-07T04:09:05.527Z,99.99
2023-01-07T04:10:05.509Z,99.99
2023-01-07T04:11:05.568Z,99.99
2023-01-07T04:12:05.519Z,99.99
2023-01-07T04:13:05.499Z,99.99
2023-01-07T04:14:05.511Z,99.99
2023-01-07T04:15:05.492Z,99.99
2023-01-07T04:16:05.521Z,99.99
2023-01-07T04:17:05.459Z,99.99
2023-01-07T04:18:05.455Z,99.99
2023-01-07T04:19:05.441Z,99.99
2023-01-07T04:20:05.448Z,99.99
2023-01-07T04:21:05.440Z,99.99
2023-01-07T04:22:05.385Z,99.99
2023-01-07T04:23:05.394Z,99.99
2023-01-07T04:24:05.379Z,99.99
2023-01-07T04:25:05.375Z,99.99
2023-01-07T04:26:05.464Z,99.99
2023-01-07T04:27:05.383Z,99.99
2023-01-07T04:28:05.364Z,99.99
2023-01-07T04:29:05.335Z,99.99
2023-01-07T04:30:05.353Z,99.99
2023-01-07T04:31:05.392Z,99.99
2023-01-07T04:32:05.300Z,99.99
2023-01-07T04:33:05.288Z,99.99
2023-01-07T04:34:05.288Z,99.99
2023-01-07T04:35:05.266Z,99.99
2023-01-07T04:36:05.278Z,99.99
2023-01-07T04:37:05.264Z,99.99
2023-01-07T04:38:05.230Z,99.99
2023-01-07T04:39:05.195Z,99.99
2023-01-07T04:40:05.193Z,99.99
2023-01-07T04:41:05.243Z,99.99
2023-01-07T04:42:05.168Z,99.99
2023-01-07T04:43:05.179Z,99.99
2023-01-07T04:44:05.167Z,99.99
2023-01-07T04:45:05.161Z,99.99
2023-01-07T04:46:05.216Z,99.99
2023-01-07T04:47:05.132Z,99.99
2023-01-07T04:48:05.116Z,99.99
2023-01-07T04:49:05.116Z,99.99
2023-01-07T04:50:05.108Z,99.99
2023-01-07T04:51:05.108Z,99.99
2023-01-07T04:52:05.061Z,99.99
2023-01-07T04:53:05.061Z,99.99
2023-01-07T04:54:05.051Z,99.99
2023-01-07T04:55:05.035Z,99.99
2023-01-07T04:56:05.063Z,99.99
2023-01-07T04:57:05.028Z,99.99
2023-01-07T04:58:05.012Z,99.99
2023-01-07T04:59:04.984Z,99.99
2023-01-07T05:00:04.984Z,99.99
2023-01-07T05:01:05.124Z,99.99
2023-01-07T05:02:05.100Z,99.99
2023-01-07T05:03:04.962Z,99.99
2023-01-07T05:04:04.946Z,99.99
2023-01-07T05:05:04.919Z,99.99
2023-01-07T05:06:04.966Z,99.99
2023-01-07T05:07:04.939Z,99.99
2023-01-07T05:08:04.891Z,99.99
2023-01-07T05:09:04.888Z,99.99
2023-01-07T05:10:04.864Z,99.99
2023-01-07T05:11:04.883Z,99.99
2023-01-07T05:12:04.849Z,99.99
2023-01-07T05:13:06.714Z,99.99
2023-01-07T05:14:04.882Z,99.99
2023-01-07T05:15:04.839Z,99.99
2023-01-07T05:16:04.865Z,99.99
2023-01-07T05:17:04.851Z,99.99
2023-01-07T05:18:04.766Z,99.99
2023-01-07T05:19:04.780Z,99.99
2023-01-07T05:20:04.754Z,99.99
2023-01-07T05:21:04.781Z,99.99
2023-01-07T05:22:04.745Z,99.99
2023-01-07T05:23:04.740Z,99.99
2023-01-07T05:24:04.716Z,99.99
2023-01-07T05:25:04.709Z,99.99
2023-01-07T05:26:04.743Z,99.99
2023-01-07T05:27:04.701Z,99.99
2023-01-07T05:28:04.663Z,99.99
2023-01-07T05:29:04.683Z,99.99
2023-01-07T05:30:04.656Z,99.99
2023-01-07T05:31:04.741Z,99.99
2023-01-07T05:32:04.627Z,99.99
2023-01-07T05:33:04.616Z,99.99
2023-01-07T05:34:04.615Z,99.99
2023-01-07T05:35:04.604Z,99.99
2023-01-07T05:36:04.607Z,99.99
2023-01-07T05:37:04.573Z,99.99
2023-01-07T05:38:04.584Z,99.99
2023-01-07T05:39:04.545Z,99.99
2023-01-07T05:40:04.542Z,99.99
2023-01-07T05:41:04.549Z,99.99
2023-01-07T05:42:04.517Z,99.99
2023-01-07T05:43:04.527Z,99.99
2023-01-07T05:44:04.491Z,99.99
2023-01-07T05:45:04.491Z,99.99
2023-01-07T05:46:04.538Z,99.99
2023-01-07T05:47:04.483Z,99.99
2023-01-07T05:48:04.454Z,99.99
2023-01-07T05:49:04.434Z,99.99
2023-01-07T05:50:04.428Z,99.99
2023-01-07T05:51:04.477Z,99.99
2023-01-07T05:52:04.427Z,99.99
2023-01-07T05:53:04.408Z,99.99
2023-01-07T05:54:04.403Z,99.99
2023-01-07T05:55:04.373Z,99.99
2023-01-07T05:56:04.406Z,99.99
2023-01-07T05:57:04.366Z,99.99
2023-01-07T05:58:04.335Z,99.99
2023-01-07T05:59:04.350Z,99.99
2023-01-07T06:00:04.369Z,99.99
2023-01-07T06:01:04.402Z,99.99
2023-01-07T06:02:04.294Z,99.99
2023-01-07T06:03:04.320Z,99.99
2023-01-07T06:04:04.273Z,99.99
2023-01-07T06:05:04.350Z,99.99
2023-01-07T06:06:04.310Z,99.99
2023-01-07T06:07:04.255Z,99.99
2023-01-07T06:08:04.239Z,99.99
2023-01-07T06:09:04.234Z,99.99
2023-01-07T06:10:04.204Z,99.99
2023-01-07T06:11:04.233Z,99.99
2023-01-07T06:12:04.182Z,99.99
2023-01-07T06:13:04.190Z,99.99
2023-01-07T06:14:04.166Z,99.99
2023-01-07T06:15:04.153Z,99.99
2023-01-07T06:16:04.210Z,99.99
2023-01-07T06:17:04.138Z,99.99
2023-01-07T06:18:04.139Z,99.99
2023-01-07T06:19:04.128Z,99.99
2023-01-07T06:20:04.088Z,99.99
2023-01-07T06:21:04.121Z,99.99
2023-01-07T06:22:04.069Z,99.99
2023-01-07T06:23:04.073Z,99.99
2023-01-07T06:24:04.053Z,99.99
2023-01-07T06:25:04.057Z,99.99
2023-01-07T06:26:04.087Z,99.99
2023-01-07T06:27:04.023Z,99.99
2023-01-07T06:28:04.001Z,99.99
2023-01-07T06:29:03.993Z,99.99
2023-01-07T06:30:03.996Z,99.99
2023-01-07T06:31:04.052Z,99.99
2023-01-07T06:32:03.976Z,99.99
2023-01-07T06:33:03.942Z,99.99
2023-01-07T06:34:03.964Z,99.99
2023-01-07T06:35:03.938Z,99.99
2023-01-07T06:36:03.952Z,99.99
2023-01-07T06:37:03.900Z,99.99
2023-01-07T06:38:03.919Z,99.99
2023-01-07T06:39:03.890Z,99.99
2023-01-07T06:40:03.855Z,99.99
2023-01-07T06:41:03.900Z,99.99
2023-01-07T06:42:03.847Z,99.99
2023-01-07T06:43:03.826Z,99.99
2023-01-07T06:44:03.825Z,99.99
2023-01-07T06:45:03.823Z,99.99
2023-01-07T06:46:03.874Z,99.99
2023-01-07T06:47:03.823Z,99.99
2023-01-07T06:48:03.785Z,99.99
2023-01-07T06:49:03.780Z,99.99
2023-01-07T06:50:03.742Z,99.99
2023-01-07T06:51:03.744Z,99.99
2023-01-07T06:52:03.774Z,99.99
2023-01-07T06:53:03.729Z,99.99
2023-01-07T06:54:03.714Z,99.99
2023-01-07T06:55:03.704Z,99.99
2023-01-07T06:56:03.687Z,99.99
2023-01-07T06:57:03.720Z,99.99
2023-01-07T06:58:03.668Z,99.99
2023-01-07T06:59:03.665Z,99.99
2023-01-07T07:00:03.640Z,99.99
2023-01-07T07:01:03.720Z,99.99
2023-01-07T07:02:03.752Z,99.99
2023-01-07T07:03:03.676Z,99.99
2023-01-07T07:04:03.594Z,99.99
2023-01-07T07:05:03.583Z,99.99
2023-01-07T07:06:03.572Z,99.99
2023-01-07T07:07:03.592Z,99.99
2023-01-07T07:08:03.575Z,99.99
2023-01-07T07:09:03.547Z,99.99
2023-01-07T07:10:03.536Z,99.99
2023-01-07T07:11:03.526Z,99.99
2023-01-07T07:12:03.542Z,99.99
2023-01-07T07:13:03.479Z,99.99
2023-01-07T07:14:03.478Z,99.99
2023-01-07T07:15:03.481Z,99.99
2023-01-07T07:16:03.520Z,99.99
2023-01-07T07:17:03.502Z,99.99
2023-01-07T07:18:03.453Z,99.99
2023-01-07T07:19:03.443Z,99.99
2023-01-07T07:20:03.416Z,99.99
2023-01-07T07:21:03.399Z,99.99
2023-01-07T07:22:04.748Z,99.99
2023-01-07T07:23:03.403Z,99.99
2023-01-07T07:24:03.392Z,99.99
2023-01-07T07:25:03.376Z,99.99
2023-01-07T07:26:03.333Z,99.99
2023-01-07T07:27:03.394Z,99.99
2023-01-07T07:28:03.320Z,99.99
2023-01-07T07:29:03.327Z,99.99
2023-01-07T07:30:03.305Z,99.99
2023-01-07T07:31:03.316Z,99.99
2023-01-07T07:32:03.336Z,99.99
2023-01-07T07:33:03.278Z,99.99
2023-01-07T07:34:03.252Z,99.99
2023-01-07T07:35:03.261Z,99.99
2023-01-07T07:36:03.241Z,99.99
2023-01-07T07:37:03.263Z,99.99
2023-01-07T07:38:03.220Z,99.99
2023-01-07T07:39:03.208Z,99.99
2023-01-07T07:40:03.201Z,99.99
2023-01-07T07:41:03.171Z,99.99
2023-01-07T07:42:03.206Z,99.99
2023-01-07T07:43:11.715Z,99.99
2023-01-07T07:44:04.147Z,99.99
2023-01-07T07:45:03.176Z,99.99
2023-01-07T07:46:03.113Z,99.99
2023-01-07T07:47:03.157Z,99.99
2023-01-07T07:48:03.089Z,99.99
2023-01-07T07:49:03.097Z,99.99
2023-01-07T07:50:03.088Z,99.99
2023-01-07T07:51:03.072Z,99.99
2023-01-07T07:52:03.075Z,99.99
2023-01-07T07:53:03.036Z,99.99
2023-01-07T07:54:03.024Z,99.99
2023-01-07T07:55:20.436Z,99.99
2023-01-07T07:56:03.991Z,99.99
2023-01-07T07:57:03.021Z,99.99
2023-01-07T07:58:02.980Z,99.99
2023-01-07T07:59:02.979Z,99.99
2023-01-07T08:00:02.965Z,99.99
2023-01-07T08:01:03.020Z,99.99
2023-01-07T08:02:03.063Z,99.99
2023-01-07T08:03:02.985Z,99.99
2023-01-07T08:04:02.934Z,99.99
2023-01-07T08:05:02.893Z,99.99
2023-01-07T08:06:02.882Z,99.99
2023-01-07T08:07:02.881Z,99.99
2023-01-07T08:08:02.927Z,99.99
2023-01-07T08:09:02.852Z,99.99
2023-01-07T08:10:02.876Z,99.99
2023-01-07T08:11:02.848Z,99.99
2023-01-07T08:12:02.850Z,99.99
2023-01-07T08:13:02.872Z,99.99
2023-01-07T08:14:02.843Z,99.99
2023-01-07T08:15:02.810Z,99.99
2023-01-07T08:16:02.817Z,99.99
2023-01-07T08:17:02.800Z,99.99
2023-01-07T08:18:02.815Z,99.99
2023-01-07T08:19:02.756Z,99.99
2023-01-07T08:20:02.745Z,99.99
2023-01-07T08:21:02.758Z,99.99
2023-01-07T08:22:02.723Z,99.99
2023-01-07T08:23:02.747Z,99.99
2023-01-07T08:24:02.715Z,99.99
2023-01-07T08:25:02.681Z,99.99
2023-01-07T08:26:02.709Z,99.99
2023-01-07T08:27:02.660Z,99.99
2023-01-07T08:28:02.699Z,99.99
2023-01-07T08:29:02.643Z,99.99
2023-01-07T08:30:02.624Z,99.99
2023-01-07T08:31:02.679Z,99.99
2023-01-07T08:32:02.608Z,99.99
2023-01-07T08:33:02.609Z,99.99
2023-01-07T08:34:02.589Z,99.99
2023-01-07T08:35:02.583Z,99.99
2023-01-07T08:36:06.949Z,99.99
2023-01-07T08:37:02.540Z,99.99
2023-01-07T08:38:02.582Z,99.99
2023-01-07T08:39:02.532Z,99.99
2023-01-07T08:40:04.663Z,99.99
2023-01-07T08:41:02.500Z,99.99
2023-01-07T08:42:02.513Z,99.99
2023-01-07T08:43:02.532Z,99.99
2023-01-07T08:44:02.474Z,99.99
2023-01-07T08:45:02.460Z,99.99
2023-01-07T08:46:02.442Z,99.99
2023-01-07T08:47:02.472Z,99.99
2023-01-07T08:48:02.468Z,99.99
2023-01-07T08:49:02.420Z,99.99
2023-01-07T08:50:02.400Z,99.99
2023-01-07T08:51:02.384Z,99.99
2023-01-07T08:52:02.378Z,99.99
2023-01-07T08:53:02.416Z,99.99
2023-01-07T08:54:02.343Z,99.99
2023-01-07T08:55:02.363Z,99.99
2023-01-07T08:56:02.359Z,99.99
2023-01-07T08:57:02.348Z,99.99
2023-01-07T08:58:02.341Z,99.99
2023-01-07T08:59:02.275Z,99.99
2023-01-07T09:00:02.308Z,99.99
2023-01-07T09:01:02.390Z,99.99
2023-01-07T09:02:02.337Z,99.99
2023-01-07T09:03:02.297Z,99.99
2023-01-07T09:04:02.241Z,99.99
2023-01-07T09:05:02.237Z,98.60
2023-01-07T09:06:02.222Z,97.37
2023-01-07T09:07:02.196Z,96.87
2023-01-07T09:08:02.238Z,95.90
2023-01-07T09:09:02.179Z,94.11
2023-01-07T09:10:02.196Z,95.39
2023-01-07T09:11:02.176Z,95.75
2023-01-07T09:12:02.176Z,96.08
2023-01-07T09:13:02.179Z,98.38
2023-01-07T09:14:02.131Z,99.91
2023-01-07T09:15:02.102Z,99.66
2023-01-07T09:16:02.129Z,99.99
2023-01-07T09:17:02.085Z,99.99
2023-01-07T09:18:02.131Z,99.99
2023-01-07T09:19:02.082Z,99.99
2023-01-07T09:20:02.083Z,99.99
2023-01-07T09:21:02.064Z,99.99
2023-01-07T09:22:02.064Z,99.99
2023-01-07T09:23:02.085Z,99.99
2023-01-07T09:24:02.046Z,99.99
2023-01-07T09:25:01.994Z,99.99
2023-01-07T09:26:02.016Z,99.99
2023-01-07T09:27:02.002Z,99.99
2023-01-07T09:28:01.992Z,99.99
2023-01-07T09:29:02.009Z,99.99
2023-01-07T09:30:01.967Z,99.99
2023-01-07T09:31:01.949Z,99.99
2023-01-07T09:32:01.916Z,99.99
2023-01-07T09:33:01.941Z,99.99
2023-01-07T09:34:01.951Z,99.99
2023-01-07T09:35:01.892Z,99.99
2023-01-07T09:36:01.905Z,99.99
2023-01-07T09:37:01.867Z,99.99
2023-01-07T09:38:01.862Z,99.99
2023-01-07T09:39:01.874Z,99.99
2023-01-07T09:40:01.845Z,99.99
2023-01-07T09:41:01.833Z,99.99
2023-01-07T09:42:01.813Z,99.99
2023-01-07T09:43:01.840Z,99.99
2023-01-07T09:44:02.107Z,99.99
2023-01-07T09:45:01.778Z,99.99
2023-01-07T09:46:01.835Z,99.99
2023-01-07T09:47:01.743Z,99.99
2023-01-07T09:48:01.740Z,99.99
2023-01-07T09:49:01.773Z,99.99
2023-01-07T09:50:01.718Z,99.99
2023-01-07T09:51:01.732Z,99.99
2023-01-07T09:52:01.714Z,99.99
2023-01-07T09:53:01.680Z,99.99
2023-01-07T09:54:01.719Z,99.99
2023-01-07T09:55:01.675Z,99.99
2023-01-07T09:56:10.687Z,99.99
2023-01-07T09:57:02.648Z,99.99
2023-01-07T09:58:01.652Z,99.99
2023-01-07T09:59:01.675Z,99.99
2023-01-07T10:00:01.622Z,99.99
2023-01-07T10:01:01.668Z,99.99
2023-01-07T10:02:01.607Z,99.99
2023-01-07T10:03:01.573Z,99.99
2023-01-07T10:04:01.647Z,99.99
2023-01-07T10:05:01.556Z,99.99
2023-01-07T10:06:01.555Z,99.99
2023-01-07T10:07:01.535Z,99.99
2023-01-07T10:08:30.084Z,99.99
2023-01-07T10:09:02.539Z,99.99
2023-01-07T10:10:01.508Z,99.96
2023-01-07T10:11:01.512Z,99.04
2023-01-07T10:12:01.476Z,99.45
2023-01-07T10:13:01.456Z,99.82
2023-01-07T10:14:01.475Z,98.85
2023-01-07T10:15:01.481Z,99.15
2023-01-07T10:16:01.474Z,98.24
2023-01-07T10:17:01.402Z,97.92
2023-01-07T10:18:01.396Z,98.03
2023-01-07T10:19:01.397Z,98.13
2023-01-07T10:20:01.449Z,98.58
2023-01-07T10:21:01.370Z,98.02
2023-01-07T10:22:01.366Z,98.74
2023-01-07T10:23:01.350Z,98.43
2023-01-07T10:24:01.334Z,98.18
2023-01-07T10:25:01.361Z,98.18
2023-01-07T10:26:01.342Z,97.92
2023-01-07T10:27:01.291Z,97.67
2023-01-07T10:28:01.293Z,96.25
2023-01-07T10:29:01.276Z,96.00
2023-01-07T10:30:01.328Z,95.94
2023-01-07T10:31:01.257Z,96.20
2023-01-07T10:32:01.317Z,95.34
2023-01-07T10:33:01.252Z,93.60
2023-01-07T10:34:01.232Z,93.60
2023-01-07T10:35:01.288Z,93.70
2023-01-07T10:36:01.216Z,93.55
2023-01-07T10:37:01.207Z,92.64
2023-01-07T10:38:01.195Z,92.39
2023-01-07T10:39:01.185Z,92.59
2023-01-07T10:40:01.192Z,92.13
2023-01-07T10:41:01.148Z,93.15
2023-01-07T10:42:01.141Z,92.33
2023-01-07T10:43:01.116Z,92.43
2023-01-07T10:44:01.126Z,92.45
2023-01-07T10:45:01.163Z,90.81
2023-01-07T10:46:01.180Z,91.39
2023-01-07T10:47:01.076Z,89.86
2023-01-07T10:48:01.057Z,89.51
2023-01-07T10:49:01.068Z,89.61
2023-01-07T10:50:01.105Z,88.55
2023-01-07T10:51:01.081Z,89.06
2023-01-07T10:52:01.022Z,88.45
2023-01-07T10:53:01.023Z,88.40
2023-01-07T10:54:00.997Z,88.51
2023-01-07T10:55:00.997Z,86.74
2023-01-07T10:56:01.021Z,86.77
2023-01-07T10:57:00.953Z,86.63
2023-01-07T10:58:00.957Z,86.16
2023-01-07T10:59:00.925Z,86.96
2023-01-07T11:00:00.945Z,88.53
2023-01-07T11:01:01.117Z,89.79
2023-01-07T11:02:01.178Z,90.75
2023-01-07T11:03:01.008Z,90.41
2023-01-07T11:04:00.880Z,89.34
2023-01-07T11:05:00.880Z,88.96
2023-01-07T11:06:00.905Z,88.04
2023-01-07T11:07:00.857Z,87.29
2023-01-07T11:08:00.832Z,86.13
2023-01-07T11:09:00.837Z,85.06
2023-01-07T11:10:00.826Z,85.58
2023-01-07T11:11:00.840Z,84.76
2023-01-07T11:12:00.799Z,85.82
2023-01-07T11:13:00.770Z,85.25
2023-01-07T11:14:00.782Z,86.22
2023-01-07T11:15:00.809Z,86.15
2023-01-07T11:16:00.776Z,83.64
2023-01-07T11:17:00.735Z,83.89
2023-01-07T11:18:00.722Z,85.31
2023-01-07T11:19:00.715Z,85.27
2023-01-07T11:20:00.721Z,84.59
2023-01-07T11:21:00.731Z,85.21
2023-01-07T11:22:00.667Z,85.08
2023-01-07T11:23:00.688Z,86.76
2023-01-07T11:24:00.674Z,85.86
2023-01-07T11:25:00.660Z,85.21
2023-01-07T11:26:00.646Z,84.59
2023-01-07T11:27:00.610Z,84.64
2023-01-07T11:28:00.614Z,85.55
2023-01-07T11:29:00.585Z,85.55
2023-01-07T11:30:00.613Z,85.45
2023-01-07T11:31:00.633Z,86.00
2023-01-07T11:32:00.683Z,86.92
2023-01-07T11:33:00.559Z,86.00
2023-01-07T11:34:02.157Z,86.61
2023-01-07T11:35:00.527Z,86.55
2023-01-07T11:36:00.572Z,86.92
2023-01-07T11:37:00.493Z,87.12
2023-01-07T11:38:00.513Z,85.74
2023-01-07T11:39:00.474Z,86.59
2023-01-07T11:40:00.492Z,87.51
2023-01-07T11:41:00.822Z,87.82
2023-01-07T11:42:00.452Z,88.22
2023-01-07T11:43:00.428Z,88.08
2023-01-07T11:44:00.423Z,87.20
2023-01-07T11:45:00.444Z,87.35
2023-01-07T11:46:19.086Z,88.84
2023-01-07T11:47:01.414Z,87.71
2023-01-07T11:48:00.376Z,87.37
2023-01-07T11:49:00.383Z,86.18
2023-01-07T11:50:00.359Z,86.73
2023-01-07T11:51:00.393Z,88.17
2023-01-07T11:52:00.339Z,88.06
2023-01-07T11:53:00.336Z,88.18
2023-01-07T11:54:00.328Z,86.51
2023-01-07T11:55:00.285Z,85.53
2023-01-07T11:56:00.326Z,86.51
2023-01-07T11:57:00.278Z,85.69
2023-01-07T11:58:28.809Z,86.53
2023-01-07T11:59:01.270Z,83.13
2023-01-07T12:00:00.253Z,83.09
2023-01-07T12:01:00.313Z,81.84
2023-01-07T12:02:00.291Z,81.33
2023-01-07T12:03:00.221Z,82.48
2023-01-07T12:04:00.195Z,83.06
2023-01-07T12:05:00.199Z,81.23
2023-01-07T12:06:00.372Z,81.79
2023-01-07T12:07:00.174Z,81.84
2023-01-07T12:08:00.162Z,83.81
2023-01-07T12:09:00.132Z,82.73
2023-01-07T12:10:00.141Z,83.40
2023-01-07T12:11:00.152Z,83.58
2023-01-07T12:12:00.104Z,84.84
2023-01-07T12:13:00.113Z,85.43
2023-01-07T12:14:00.119Z,86.94
2023-01-07T12:15:00.087Z,87.59
2023-01-07T12:16:00.164Z,89.06
2023-01-07T12:17:00.046Z,89.47
2023-01-07T12:18:00.047Z,89.98
2023-01-07T12:19:00.049Z,90.29
2023-01-07T12:20:00.033Z,90.08
2023-01-07T12:21:00.080Z,90.39
2023-01-07T12:22:00.031Z,90.04
2023-01-07T12:22:59.991Z,89.98
2023-01-07T12:23:59.998Z,90.14
2023-01-07T12:24:59.959Z,90.00
2023-01-07T12:26:00.032Z,88.37
2023-01-07T12:26:59.964Z,89.23
2023-01-07T12:27:59.928Z,89.63
2023-01-07T12:28:59.924Z,89.63
2023-01-07T12:29:59.887Z,89.63
2023-01-07T12:30:59.935Z,89.32
2023-01-07T12:31:59.885Z,88.78
2023-01-07T12:32:59.885Z,89.18
2023-01-07T12:33:59.872Z,88.84
2023-01-07T12:35:14.207Z,88.32
2023-01-07T12:36:00.876Z,87.61
2023-01-07T12:36:59.809Z,88.57
2023-01-07T12:37:59.810Z,88.73
2023-01-07T12:38:59.789Z,87.16
2023-01-07T12:39:59.817Z,85.61
2023-01-07T12:40:59.765Z,84.68
2023-01-07T12:41:59.810Z,82.40
2023-01-07T12:42:59.770Z,82.85
2023-01-07T12:43:59.765Z,82.61
2023-01-07T12:44:59.761Z,80.88
2023-01-07T12:45:59.859Z,81.15
2023-01-07T12:47:29.907Z,80.13
2023-01-07T12:48:00.678Z,80.27
2023-01-07T12:48:59.697Z,81.59
2023-01-07T12:49:59.709Z,82.51
2023-01-07T12:50:59.686Z,82.82
2023-01-07T12:51:59.702Z,85.21